createdAt,value
2019-04-04T00:01:22.530Z,55.23
2019-04-04T00:03:51.862Z,53.50
2019-04-04T00:06:20.561Z,52.97
2019-04-04T00:08:49.053Z,49.07
2019-04-04T00:11:17.249Z,53.80
2019-04-04T00:13:45.450Z,54.37
2019-04-04T00:16:16.063Z,49.50
2019-04-04T00:18:43.991Z,51.77
2019-04-04T00:21:13.227Z,52.00
2019-04-04T00:23:41.454Z,53.83
2019-04-04T00:26:10.785Z,52.17
2019-04-04T00:28:39.531Z,54.63
2019-04-04T00:31:07.941Z,53.30
2019-04-04T00:33:36.404Z,53.83
2019-04-04T00:36:04.912Z,54.70
2019-04-04T00:38:33.114Z,54.43
2019-04-04T00:41:01.349Z,54.27
2019-04-04T00:43:29.821Z,53.67
2019-04-04T00:46:00.539Z,56.00
2019-04-04T00:48:28.336Z,52.60
2019-04-04T00:50:56.797Z,53.63
2019-04-04T00:53:25.306Z,51.60
2019-04-04T00:55:53.761Z,54.30
2019-04-04T00:58:22.279Z,54.83
2019-04-04T01:00:50.579Z,53.77
2019-04-04T01:03:18.801Z,50.50
2019-04-04T01:05:47.177Z,51.43
2019-04-04T01:08:15.667Z,55.03
2019-04-04T01:10:44.138Z,56.33
2019-04-04T01:13:12.365Z,56.30
2019-04-04T01:15:40.668Z,56.67
2019-04-04T01:18:08.869Z,48.77
2019-04-04T01:20:37.237Z,57.50
2019-04-04T01:23:05.550Z,51.97
2019-04-04T01:25:34.012Z,58.00
2019-04-04T01:28:02.492Z,54.57
2019-04-04T01:30:30.986Z,58.87
2019-04-04T01:32:59.466Z,56.00
2019-04-04T01:35:27.956Z,58.20
2019-04-04T01:37:58.119Z,58.17
2019-04-04T01:40:26.436Z,60.33
2019-04-04T01:42:54.922Z,59.60
2019-04-04T01:45:23.394Z,58.90
2019-04-04T01:47:51.611Z,58.40
2019-04-04T01:50:22.494Z,59.13
2019-04-04T01:52:49.879Z,57.43
2019-04-04T01:55:18.336Z,57.00
2019-04-04T01:57:46.823Z,57.03
2019-04-04T02:00:15.835Z,56.43
2019-04-04T02:02:44.292Z,57.80
2019-04-04T02:05:13.111Z,53.13
2019-04-04T02:07:41.256Z,56.50
2019-04-04T02:10:10.235Z,57.87
2019-04-04T02:12:39.334Z,58.57
2019-04-04T02:15:13.787Z,57.00
2019-04-04T02:17:40.540Z,53.00
2019-04-04T02:20:08.865Z,53.90
2019-04-04T02:22:37.066Z,54.67
2019-04-04T02:25:08.027Z,51.10
2019-04-04T02:27:37.914Z,50.47
2019-04-04T02:30:07.166Z,53.93
2019-04-04T02:32:35.370Z,54.47
2019-04-04T02:35:05.057Z,53.60
2019-04-04T02:37:33.280Z,54.00
2019-04-04T02:40:01.762Z,56.23
2019-04-04T02:42:29.963Z,56.80
2019-04-04T02:44:58.208Z,56.33
2019-04-04T02:47:26.796Z,57.30
2019-04-04T02:49:55.160Z,56.50
2019-04-04T02:52:23.649Z,56.07
2019-04-04T02:54:57.087Z,57.33
2019-04-04T02:57:22.668Z,57.53
2019-04-04T02:59:53.404Z,57.73
2019-04-04T03:02:23.174Z,55.93
2019-04-04T03:04:51.190Z,55.90
2019-04-04T03:07:19.662Z,55.93
2019-04-04T03:09:48.164Z,59.67
2019-04-04T03:12:16.620Z,56.93
2019-04-04T03:14:45.105Z,58.97
2019-04-04T03:17:13.602Z,56.00
2019-04-04T03:19:43.626Z,60.33
2019-04-04T03:22:11.705Z,58.27
2019-04-04T03:24:42.904Z,56.13
2019-04-04T03:27:10.084Z,57.70
2019-04-04T03:29:38.549Z,56.67
2019-04-04T03:32:13.786Z,58.43
2019-04-04T03:34:38.625Z,58.80
2019-04-04T03:37:10.170Z,57.87
2019-04-04T03:39:37.085Z,59.13
2019-04-04T03:42:08.223Z,55.97
2019-04-04T03:44:35.582Z,56.93
2019-04-04T03:47:03.772Z,57.80
2019-04-04T03:49:32.065Z,57.07
2019-04-04T03:52:00.272Z,57.70
2019-04-04T03:54:28.634Z,53.83
2019-04-04T03:56:56.828Z,52.60
2019-04-04T03:59:25.048Z,57.67
2019-04-04T04:01:53.419Z,58.67
2019-04-04T04:04:21.775Z,55.27
2019-04-04T04:06:50.388Z,52.73
2019-04-04T04:09:18.582Z,58.20
2019-04-04T04:11:46.806Z,55.87
2019-04-04T04:14:15.012Z,49.40
2019-04-04T04:16:43.227Z,49.17
2019-04-04T04:19:11.453Z,56.03
2019-04-04T04:21:42.760Z,57.13
2019-04-04T04:24:09.649Z,54.37
2019-04-04T04:26:40.989Z,54.60
2019-04-04T04:29:08.255Z,56.03
2019-04-04T04:31:36.487Z,54.67
2019-04-04T04:34:04.718Z,53.23
2019-04-04T04:36:33.199Z,54.17
2019-04-04T04:39:01.669Z,54.40
2019-04-04T04:41:30.170Z,53.90
2019-04-04T04:43:58.627Z,56.33
2019-04-04T04:46:27.120Z,53.03
2019-04-04T04:48:55.616Z,52.60
2019-04-04T04:51:24.090Z,54.90
2019-04-04T04:53:52.560Z,54.67
2019-04-04T04:56:20.780Z,53.27
2019-04-04T04:58:49.005Z,55.07
2019-04-04T05:01:18.383Z,54.40
2019-04-04T05:03:47.293Z,52.43
2019-04-04T05:06:15.496Z,53.27
2019-04-04T05:08:43.707Z,52.10
2019-04-04T05:11:14.457Z,51.23
2019-04-04T05:13:41.840Z,51.37
2019-04-04T05:16:10.061Z,50.40
2019-04-04T05:18:38.253Z,51.90
2019-04-04T05:21:06.482Z,52.20
2019-04-04T05:23:34.663Z,50.27
2019-04-04T05:26:03.295Z,51.40
2019-04-04T05:28:31.550Z,55.63
2019-04-04T05:30:59.766Z,54.37
2019-04-04T05:33:29.136Z,55.17
2019-04-04T05:35:57.901Z,55.27
2019-04-04T05:38:26.093Z,55.97
2019-04-04T05:40:55.346Z,53.10
2019-04-04T05:43:24.287Z,57.30
2019-04-04T05:45:52.487Z,55.07
2019-04-04T05:48:20.699Z,55.67
2019-04-04T05:50:48.911Z,55.57
2019-04-04T05:53:17.116Z,56.33
2019-04-04T05:55:45.315Z,54.20
2019-04-04T05:58:13.538Z,53.33
2019-04-04T06:00:44.096Z,56.53
2019-04-04T06:03:13.025Z,53.97
2019-04-04T06:05:42.239Z,54.53
2019-04-04T06:08:10.454Z,54.43
2019-04-04T06:10:38.711Z,54.73
2019-04-04T06:13:06.849Z,53.70
2019-04-04T06:15:35.065Z,51.87
2019-04-04T06:18:03.334Z,52.17
2019-04-04T06:20:31.546Z,55.27
2019-04-04T06:22:59.754Z,55.17
2019-04-04T06:25:27.980Z,51.13
2019-04-04T06:27:56.549Z,53.27
2019-04-04T06:30:24.765Z,55.40
2019-04-04T06:32:52.977Z,54.53
2019-04-04T06:35:21.184Z,52.53
2019-04-04T06:37:51.305Z,54.10
2019-04-04T06:40:19.575Z,51.80
2019-04-04T06:42:47.789Z,53.37
2019-04-04T06:45:16.328Z,53.20
2019-04-04T06:47:44.550Z,49.60
2019-04-04T06:50:12.758Z,45.13
2019-04-04T06:52:40.952Z,45.23
2019-04-04T06:55:09.173Z,44.13
2019-04-04T06:57:37.613Z,45.87
2019-04-04T07:00:08.931Z,37.73
2019-04-04T07:02:37.129Z,35.37
2019-04-04T07:05:10.393Z,33.93
2019-04-04T07:07:37.864Z,33.20
2019-04-04T07:10:06.075Z,30.27
2019-04-04T07:12:37.850Z,28.23
2019-04-04T07:15:06.140Z,27.63
2019-04-04T07:17:34.346Z,27.13
2019-04-04T07:20:02.547Z,24.07
2019-04-04T07:22:30.736Z,24.13
2019-04-04T07:25:01.124Z,24.93
2019-04-04T07:27:28.872Z,26.50
2019-04-04T07:29:57.326Z,25.23
2019-04-04T07:32:25.478Z,22.20
2019-04-04T07:34:53.699Z,26.27
2019-04-04T07:37:22.664Z,27.00
2019-04-04T07:39:50.868Z,26.83
2019-04-04T07:42:19.154Z,28.10
2019-04-04T07:44:47.601Z,27.17
2019-04-04T07:47:16.767Z,26.77
2019-04-04T07:49:45.038Z,25.10
2019-04-04T07:52:13.256Z,25.30
2019-04-04T07:54:41.456Z,23.87
2019-04-04T07:57:09.678Z,23.60
2019-04-04T07:59:37.879Z,23.43
2019-04-04T08:02:06.092Z,21.73
2019-04-04T08:04:34.360Z,22.40
2019-04-04T08:07:02.573Z,21.00
2019-04-04T08:09:30.774Z,20.70
2019-04-04T08:11:59.312Z,21.00
2019-04-04T08:14:28.079Z,21.37
2019-04-04T08:16:56.529Z,21.83
2019-04-04T08:19:24.726Z,19.30
2019-04-04T08:21:52.920Z,20.03
2019-04-04T08:24:21.133Z,17.90
2019-04-04T08:26:49.332Z,18.40
2019-04-04T08:29:17.556Z,17.67
2019-04-04T08:31:45.758Z,16.97
2019-04-04T08:34:13.986Z,15.23
2019-04-04T08:36:42.199Z,17.20
2019-04-04T08:39:11.971Z,14.87
2019-04-04T08:41:40.187Z,14.73
2019-04-04T08:44:08.398Z,14.43
2019-04-04T08:46:36.611Z,14.63
2019-04-04T08:49:04.811Z,15.67
2019-04-04T08:51:33.028Z,15.10
2019-04-04T08:54:01.225Z,16.50
2019-04-04T08:56:29.445Z,16.00
2019-04-04T08:58:57.654Z,16.73
2019-04-04T09:01:25.849Z,17.37
2019-04-04T09:03:54.529Z,16.90
2019-04-04T09:06:22.746Z,18.67
2019-04-04T09:08:50.954Z,18.20
2019-04-04T09:11:19.150Z,20.33
2019-04-04T09:13:47.352Z,20.37
2019-04-04T09:16:15.551Z,20.57
2019-04-04T09:18:43.775Z,21.00
2019-04-04T09:21:11.978Z,19.80
2019-04-04T09:23:40.189Z,21.30
2019-04-04T09:26:08.400Z,20.00
2019-04-04T09:28:36.616Z,21.90
2019-04-04T09:31:05.389Z,21.90
2019-04-04T09:33:33.603Z,20.73
2019-04-04T09:36:01.805Z,21.63
2019-04-04T09:38:30.025Z,24.57
2019-04-04T09:40:58.225Z,18.77
2019-04-04T09:43:26.898Z,22.60
2019-04-04T09:45:55.356Z,22.63
2019-04-04T09:48:23.558Z,24.40
2019-04-04T09:50:51.769Z,25.27
2019-04-04T09:53:19.992Z,25.97
2019-04-04T09:55:48.197Z,25.20
2019-04-04T09:58:16.414Z,26.07
2019-04-04T10:00:45.494Z,28.27
2019-04-04T10:03:13.717Z,28.37
2019-04-04T10:05:41.919Z,27.47
2019-04-04T10:08:10.137Z,28.17
2019-04-04T10:10:38.348Z,27.57
2019-04-04T10:13:06.555Z,29.63
2019-04-04T10:15:34.792Z,30.20
2019-04-04T10:18:02.969Z,34.27
2019-04-04T10:20:31.198Z,34.70
2019-04-04T10:22:59.410Z,27.77
2019-04-04T10:25:27.606Z,26.23
2019-04-04T10:27:55.820Z,27.73
2019-04-04T10:30:24.024Z,27.37
2019-04-04T10:32:52.324Z,31.70
2019-04-04T10:35:20.525Z,29.70
2019-04-04T10:37:48.748Z,31.27
2019-04-04T10:40:16.950Z,31.87
2019-04-04T10:42:45.151Z,31.17
2019-04-04T10:45:13.507Z,32.07
2019-04-04T10:47:41.730Z,32.73
2019-04-04T10:50:09.952Z,34.90
2019-04-04T10:52:39.459Z,32.67
2019-04-04T10:55:07.682Z,34.93
2019-04-04T10:57:35.886Z,31.50
2019-04-04T11:00:08.409Z,34.53
2019-04-04T11:02:36.611Z,34.43
2019-04-04T11:05:05.452Z,32.87
2019-04-04T11:07:34.033Z,37.50
2019-04-04T11:10:02.242Z,33.47
2019-04-04T11:12:30.462Z,36.07
2019-04-04T11:14:58.658Z,38.30
2019-04-04T11:17:26.879Z,37.63
2019-04-04T11:19:55.080Z,39.20
2019-04-04T11:22:23.282Z,38.40
2019-04-04T11:24:51.498Z,39.90
2019-04-04T11:27:19.706Z,38.73
2019-04-04T11:29:47.927Z,39.63
2019-04-04T11:32:16.133Z,40.10
2019-04-04T11:34:52.968Z,39.43
2019-04-04T11:37:14.286Z,37.37
2019-04-04T11:39:53.930Z,40.60
2019-04-04T11:42:12.416Z,40.87
2019-04-04T11:44:40.616Z,39.53
2019-04-04T11:47:08.834Z,41.43
2019-04-04T11:49:37.036Z,41.23
2019-04-04T11:52:05.250Z,41.10
2019-04-04T11:54:35.100Z,41.67
2019-04-04T11:57:03.321Z,39.47
2019-04-04T11:59:31.516Z,39.97
2019-04-04T12:02:00.094Z,40.90
2019-04-04T12:04:28.310Z,41.37
2019-04-04T12:06:56.506Z,40.33
2019-04-04T12:09:24.719Z,42.23
2019-04-04T12:11:53.387Z,43.33
2019-04-04T12:14:21.588Z,42.63
2019-04-04T12:16:49.784Z,42.17
2019-04-04T12:19:17.993Z,45.00
2019-04-04T12:21:46.183Z,45.47
2019-04-04T12:24:14.389Z,44.53
2019-04-04T12:26:42.592Z,42.23
2019-04-04T12:29:10.809Z,46.30
2019-04-04T12:31:39.007Z,45.63
2019-04-04T12:34:07.221Z,46.83
2019-04-04T12:36:35.422Z,48.40
2019-04-04T12:39:03.762Z,48.10
2019-04-04T12:41:31.985Z,48.60
2019-04-04T12:44:00.195Z,46.43
2019-04-04T12:46:28.417Z,47.90
2019-04-04T12:48:57.084Z,49.93
2019-04-04T12:51:25.302Z,51.27
2019-04-04T12:53:53.518Z,50.97
2019-04-04T12:56:21.729Z,50.23
2019-04-04T12:58:50.185Z,50.47
2019-04-04T13:01:21.110Z,54.03
2019-04-04T13:03:48.327Z,51.47
2019-04-04T13:06:16.539Z,51.47
2019-04-04T13:08:44.740Z,51.63
2019-04-04T13:11:12.968Z,53.27
2019-04-04T13:13:41.171Z,50.20
2019-04-04T13:16:09.373Z,53.43
2019-04-04T13:18:37.589Z,52.00
2019-04-04T13:21:05.798Z,52.80
2019-04-04T13:23:34.018Z,51.37
2019-04-04T13:26:02.219Z,51.77
2019-04-04T13:28:30.440Z,50.33
2019-04-04T13:30:58.648Z,50.27
2019-04-04T13:33:26.883Z,52.67
2019-04-04T13:35:55.087Z,48.83
2019-04-04T13:38:24.761Z,49.40
2019-04-04T13:40:52.985Z,50.40
2019-04-04T13:43:22.594Z,51.80
2019-04-04T13:45:51.131Z,49.23
2019-04-04T13:48:19.326Z,45.07
2019-04-04T13:50:47.585Z,48.63
2019-04-04T13:53:15.790Z,51.13
2019-04-04T13:55:43.990Z,50.77
2019-04-04T13:58:12.443Z,54.23
2019-04-04T14:00:40.588Z,52.20
2019-04-04T14:03:09.285Z,49.43
2019-04-04T14:05:37.481Z,52.33
2019-04-04T14:08:05.717Z,51.33
2019-04-04T14:10:33.894Z,52.23
2019-04-04T14:13:02.097Z,52.53
2019-04-04T14:15:30.334Z,49.13
2019-04-04T14:17:58.525Z,52.80
2019-04-04T14:20:26.745Z,52.17
2019-04-04T14:22:54.950Z,52.27
2019-04-04T14:25:23.175Z,54.03
2019-04-04T14:27:51.380Z,51.17
2019-04-04T14:30:19.598Z,51.87
2019-04-04T14:32:47.799Z,47.17
2019-04-04T14:35:16.016Z,50.53
2019-04-04T14:37:44.222Z,51.73
2019-04-04T14:40:12.453Z,51.10
2019-04-04T14:42:40.650Z,45.73
2019-04-04T14:45:09.138Z,49.97
2019-04-04T14:47:37.337Z,52.93
2019-04-04T14:50:07.094Z,50.57
2019-04-04T14:52:35.298Z,50.93
2019-04-04T14:55:04.252Z,52.97
2019-04-04T14:57:32.460Z,46.90
2019-04-04T15:00:00.681Z,51.17
2019-04-04T15:02:28.883Z,47.33
2019-04-04T15:04:57.085Z,49.73
2019-04-04T15:07:25.306Z,53.30
2019-04-04T15:09:53.502Z,49.57
2019-04-04T15:12:22.730Z,46.80
2019-04-04T15:14:50.929Z,49.60
2019-04-04T15:17:19.139Z,53.13
2019-04-04T15:19:47.345Z,48.37
2019-04-04T15:22:15.629Z,46.57
2019-04-04T15:24:43.829Z,53.13
2019-04-04T15:27:12.046Z,49.80
2019-04-04T15:29:40.249Z,54.80
2019-04-04T15:32:08.542Z,49.03
2019-04-04T15:34:36.748Z,52.07
2019-04-04T15:37:04.954Z,57.37
2019-04-04T15:39:33.167Z,57.50
2019-04-04T15:42:01.385Z,56.87
2019-04-04T15:44:29.600Z,59.73
2019-04-04T15:46:57.808Z,57.93
2019-04-04T15:49:26.039Z,60.10
2019-04-04T15:51:54.245Z,54.27
2019-04-04T15:54:22.447Z,59.00
2019-04-04T15:56:50.661Z,60.47
2019-04-04T15:59:18.860Z,59.53
2019-04-04T16:01:47.074Z,61.33
2019-04-04T16:04:15.287Z,57.20
2019-04-04T16:06:43.503Z,56.63
2019-04-04T16:09:11.698Z,62.60
2019-04-04T16:11:49.450Z,61.17
2019-04-04T16:14:09.842Z,55.50
2019-04-04T16:16:38.057Z,58.57
2019-04-04T16:19:06.256Z,54.63
2019-04-04T16:21:34.733Z,59.40
2019-04-04T16:24:02.945Z,57.27
2019-04-04T16:26:31.166Z,57.40
2019-04-04T16:28:59.365Z,54.70
2019-04-04T16:31:27.580Z,56.50
2019-04-04T16:33:55.781Z,58.97
2019-04-04T16:36:24.004Z,57.93
2019-04-04T16:38:52.217Z,58.57
2019-04-04T16:41:20.412Z,52.53
2019-04-04T16:43:49.613Z,52.63
2019-04-04T16:46:17.907Z,56.17
2019-04-04T16:48:46.126Z,59.33
2019-04-04T16:51:14.327Z,55.67
2019-04-04T16:53:42.544Z,52.57
2019-04-04T16:56:10.751Z,56.07
2019-04-04T16:58:38.956Z,56.97
2019-04-04T17:01:07.173Z,59.00
2019-04-04T17:03:35.381Z,58.80
2019-04-04T17:06:03.600Z,54.80
2019-04-04T17:08:31.807Z,58.50
2019-04-04T17:11:00.033Z,59.63
2019-04-04T17:13:28.234Z,57.80
2019-04-04T17:15:56.440Z,53.63
2019-04-04T17:18:24.657Z,49.53
2019-04-04T17:20:52.867Z,57.97
2019-04-04T17:23:21.086Z,61.70
2019-04-04T17:25:49.294Z,58.07
2019-04-04T17:28:17.648Z,57.10
2019-04-04T17:30:46.195Z,60.27
2019-04-04T17:33:14.944Z,56.10
2019-04-04T17:35:43.186Z,48.10
2019-04-04T17:38:11.404Z,49.90
2019-04-04T17:40:40.118Z,49.10
2019-04-04T17:43:08.326Z,50.17
2019-04-04T17:45:36.936Z,49.47
2019-04-04T17:48:05.153Z,48.93
2019-04-04T17:50:33.390Z,50.73
2019-04-04T17:53:01.663Z,50.33
2019-04-04T17:55:29.905Z,52.20
2019-04-04T17:57:58.092Z,51.27
2019-04-04T18:00:27.517Z,50.17
2019-04-04T18:02:55.716Z,47.37
2019-04-04T18:05:23.937Z,48.97
2019-04-04T18:07:52.146Z,46.70
2019-04-04T18:10:21.716Z,46.40
2019-04-04T18:12:49.927Z,46.13
2019-04-04T18:15:18.137Z,46.73
2019-04-04T18:17:46.326Z,45.37
2019-04-04T18:20:15.805Z,45.80
2019-04-04T18:22:44.005Z,45.30
2019-04-04T18:25:12.191Z,45.80
2019-04-04T18:27:42.638Z,47.30
2019-04-04T18:30:13.078Z,44.67
2019-04-04T18:32:41.288Z,44.27
2019-04-04T18:35:09.553Z,46.03
2019-04-04T18:37:38.119Z,45.27
2019-04-04T18:40:07.262Z,45.83
2019-04-04T18:42:35.482Z,48.20
2019-04-04T18:45:05.565Z,46.23
2019-04-04T18:47:33.777Z,48.60
2019-04-04T18:50:02.379Z,46.30
2019-04-04T18:52:30.578Z,45.23
2019-04-04T18:54:58.790Z,48.33
2019-04-04T18:57:27.014Z,47.63
2019-04-04T18:59:55.213Z,50.73
2019-04-04T19:02:23.410Z,49.13
2019-04-04T19:04:51.624Z,49.27
2019-04-04T19:07:19.825Z,49.70
2019-04-04T19:09:48.042Z,50.30
2019-04-04T19:12:16.242Z,47.67
2019-04-04T19:14:44.452Z,50.30
2019-04-04T19:17:12.673Z,48.10
2019-04-04T19:19:42.011Z,49.37
2019-04-04T19:22:10.235Z,50.90
2019-04-04T19:24:38.429Z,47.90
2019-04-04T19:27:06.645Z,48.00
2019-04-04T19:29:34.849Z,50.17
2019-04-04T19:32:03.644Z,50.53
2019-04-04T19:34:31.849Z,49.23
2019-04-04T19:37:00.052Z,50.17
2019-04-04T19:39:28.266Z,48.50
2019-04-04T19:41:56.464Z,49.07
2019-04-04T19:44:24.686Z,49.07
2019-04-04T19:46:52.888Z,47.77
2019-04-04T19:49:21.178Z,48.57
2019-04-04T19:51:49.389Z,48.97
2019-04-04T19:54:19.395Z,48.90
2019-04-04T19:56:47.634Z,50.13
2019-04-04T19:59:15.834Z,51.77
2019-04-04T20:01:44.052Z,50.87
2019-04-04T20:04:13.885Z,51.10
2019-04-04T20:06:42.097Z,51.47
2019-04-04T20:09:10.306Z,49.40
2019-04-04T20:11:38.664Z,51.67
2019-04-04T20:14:07.147Z,51.07
2019-04-04T20:16:35.638Z,52.20
2019-04-04T20:19:03.982Z,52.73
2019-04-04T20:21:32.191Z,48.33
2019-04-04T20:24:00.398Z,48.37
2019-04-04T20:26:29.556Z,49.80
2019-04-04T20:28:58.041Z,51.13
2019-04-04T20:31:26.532Z,54.53
2019-04-04T20:34:01.534Z,52.90
2019-04-04T20:36:25.014Z,51.27
2019-04-04T20:38:53.436Z,51.47
2019-04-04T20:41:21.986Z,51.37
2019-04-04T20:43:50.451Z,52.87
2019-04-04T20:46:18.937Z,53.23
2019-04-04T20:48:47.143Z,50.80
2019-04-04T20:51:15.421Z,49.17
2019-04-04T20:53:43.808Z,51.30
2019-04-04T20:56:12.357Z,52.03
2019-04-04T20:58:42.188Z,51.23
2019-04-04T21:01:10.484Z,50.93
2019-04-04T21:03:38.811Z,51.97
2019-04-04T21:06:07.055Z,53.77
2019-04-04T21:08:35.281Z,52.13
2019-04-04T21:11:03.787Z,51.77
2019-04-04T21:13:32.130Z,51.37
2019-04-04T21:16:00.445Z,52.97
2019-04-04T21:18:28.765Z,55.07
2019-04-04T21:20:57.160Z,56.50
2019-04-04T21:23:25.640Z,54.70
2019-04-04T21:25:54.132Z,54.27
2019-04-04T21:28:22.597Z,52.43
2019-04-04T21:30:50.839Z,52.73
2019-04-04T21:33:19.048Z,53.17
2019-04-04T21:35:47.261Z,49.83
2019-04-04T21:38:15.472Z,51.77
2019-04-04T21:40:44.010Z,54.37
2019-04-04T21:43:12.208Z,56.40
2019-04-04T21:45:40.482Z,58.87
2019-04-04T21:48:08.775Z,60.67
2019-04-04T21:50:38.384Z,59.37
2019-04-04T21:53:07.631Z,58.90
2019-04-04T21:55:35.839Z,58.03
2019-04-04T21:58:04.051Z,52.87
2019-04-04T22:00:39.714Z,53.17
2019-04-04T22:03:07.924Z,56.47
2019-04-04T22:05:36.139Z,57.00
2019-04-04T22:08:04.464Z,56.93
2019-04-04T22:10:32.929Z,60.77
2019-04-04T22:13:01.144Z,58.03
2019-04-04T22:15:29.348Z,57.50
2019-04-04T22:17:58.124Z,59.40
2019-04-04T22:20:26.321Z,56.47
2019-04-04T22:22:54.839Z,58.63
2019-04-04T22:25:23.299Z,58.00
2019-04-04T22:27:51.799Z,59.77
2019-04-04T22:30:20.278Z,58.70
2019-04-04T22:32:48.970Z,58.97
2019-04-04T22:35:17.325Z,57.07
2019-04-04T22:37:45.710Z,57.97
2019-04-04T22:40:15.668Z,58.17
2019-04-04T22:42:44.214Z,55.83
2019-04-04T22:45:12.708Z,55.00
2019-04-04T22:47:41.174Z,57.87
2019-04-04T22:50:10.361Z,54.70
2019-04-04T22:52:38.562Z,56.83
2019-04-04T22:55:07.292Z,55.97
2019-04-04T22:57:36.273Z,57.97
2019-04-04T23:00:06.906Z,56.47
2019-04-04T23:02:35.202Z,57.23
2019-04-04T23:05:04.536Z,58.77
2019-04-04T23:07:32.760Z,53.87
2019-04-04T23:10:00.949Z,56.23
2019-04-04T23:12:29.160Z,56.40
2019-04-04T23:14:57.532Z,52.13
2019-04-04T23:17:26.043Z,55.97
2019-04-04T23:19:54.501Z,54.87
2019-04-04T23:22:22.983Z,54.80
2019-04-04T23:24:51.477Z,53.57
2019-04-04T23:27:19.687Z,51.33
2019-04-04T23:29:47.925Z,52.63
2019-04-04T23:32:16.399Z,51.87
2019-04-04T23:34:44.885Z,55.17
2019-04-04T23:37:13.366Z,53.60
2019-04-04T23:39:41.865Z,54.93
2019-04-04T23:42:10.331Z,54.77
2019-04-04T23:44:38.528Z,53.60
2019-04-04T23:47:06.813Z,53.63
2019-04-04T23:49:35.015Z,53.90
2019-04-04T23:52:03.508Z,56.30
2019-04-04T23:54:31.705Z,53.27
2019-04-04T23:56:59.917Z,56.30
2019-04-04T23:59:28.122Z,52.13
